Time;durP1;ratioP1;P1;durP2;ratioP2;P2;SDS_P1;SDS_P2;PMS_P1;PMS_P2;Temp;Humidity;BMP_temperature;BMP_pressure;BME280_temperature;BME280_humidity;BME280_pressure;Samples;Min_cycle;Max_cycle;Signal;HPM_P1;HPM_P2
2020/12/02 00:03:27;;;;;;;18.00;7.97;;;4.70;99.90;;;;;;6757931;88;20346;-79
2020/12/02 00:13:32;;;;;;;16.62;8.23;;;4.70;99.90;;;;;;6760315;87;20246;-78
2020/12/02 00:23:33;;;;;;;16.92;8.00;;;4.70;99.90;;;;;;6759160;87;20187;-78
2020/12/02 00:33:33;;;;;;;15.65;7.93;;;4.70;99.90;;;;;;6759851;88;20186;-79
2020/12/02 00:43:34;;;;;;;17.85;8.00;;;4.60;99.90;;;;;;6759949;87;20410;-80
2020/12/02 00:53:35;;;;;;;15.57;7.18;;;4.50;99.90;;;;;;6769178;87;20191;-79
2020/12/02 01:03:35;;;;;;;13.80;7.18;;;4.60;99.90;;;;;;6764127;88;20198;-80
2020/12/02 01:13:38;;;;;;;18.00;9.50;;;4.70;99.90;;;;;;6770178;87;20207;-79
2020/12/02 01:23:39;;;;;;;20.10;9.23;;;4.70;99.90;;;;;;6755602;88;20319;-79
2020/12/02 01:33:40;;;;;;;19.20;8.80;;;4.70;99.90;;;;;;6758462;87;20291;-79
2020/12/02 01:43:40;;;;;;;21.42;10.48;;;4.70;99.90;;;;;;6754513;88;20195;-78
2020/12/02 01:54:03;;;;;;;21.87;9.60;;;4.60;99.90;;;;;;6758653;88;20206;-78
2020/12/02 02:04:06;;;;;;;19.33;9.02;;;4.50;99.90;;;;;;6723160;88;20186;-78
2020/12/02 02:14:40;;;;;;;14.35;7.60;;;4.50;99.90;;;;;;6723996;88;20688;-79
2020/12/02 02:24:41;;;;;;;15.73;7.80;;;4.40;99.90;;;;;;6725342;88;20677;-79
2020/12/02 02:35:03;;;;;;;13.90;7.82;;;4.50;99.90;;;;;;6724964;88;20181;-79
2020/12/02 02:45:17;;;;;;;16.52;7.50;;;4.50;99.90;;;;;;6720817;88;20207;-77
2020/12/02 02:55:22;;;;;;;15.88;7.82;;;4.40;99.90;;;;;;6720629;88;20219;-78
2020/12/02 03:05:22;;;;;;;14.85;7.47;;;4.60;99.90;;;;;;6723505;88;20665;-78
2020/12/02 03:15:23;;;;;;;14.32;7.05;;;4.40;99.90;;;;;;6723521;88;20209;-78
2020/12/02 03:25:28;;;;;;;13.43;6.72;;;4.30;99.90;;;;;;6723212;88;20689;-78
2020/12/02 03:35:29;;;;;;;13.68;7.12;;;4.30;99.90;;;;;;6723113;88;20791;-78
2020/12/02 03:45:29;;;;;;;13.82;7.20;;;4.20;99.90;;;;;;6724569;88;20188;-78
2020/12/02 03:55:30;;;;;;;17.02;6.80;;;4.10;99.90;;;;;;6722728;88;20766;-76
2020/12/02 04:05:31;;;;;;;13.38;7.30;;;4.10;99.90;;;;;;6723705;88;20902;-77
2020/12/02 04:15:31;;;;;;;13.85;6.93;;;4.10;99.90;;;;;;6723811;88;20719;-79
2020/12/02 04:25:32;;;;;;;14.65;6.43;;;4.00;99.90;;;;;;6726766;88;20193;-77
2020/12/02 04:35:32;;;;;;;16.40;7.80;;;4.00;99.90;;;;;;6724881;88;20185;-76
2020/12/02 04:45:33;;;;;;;13.10;6.95;;;3.90;99.90;;;;;;6723315;88;20193;-77
2020/12/02 04:55:33;;;;;;;17.05;8.23;;;4.00;99.90;;;;;;6721509;88;20207;-76
2020/12/02 05:05:34;;;;;;;13.23;6.83;;;3.90;99.90;;;;;;6720459;88;20214;-76
2020/12/02 05:15:35;;;;;;;15.77;7.32;;;3.90;99.90;;;;;;6723863;88;20548;-77
2020/12/02 05:25:36;;;;;;;13.65;6.47;;;3.90;99.90;;;;;;6723452;88;20189;-77
2020/12/02 05:35:39;;;;;;;13.70;6.85;;;3.90;99.90;;;;;;6721657;88;20222;-76
2020/12/02 05:45:42;;;;;;;14.13;7.35;;;4.10;99.90;;;;;;6722063;88;20198;-77
2020/12/02 05:55:43;;;;;;;12.75;6.55;;;4.00;99.90;;;;;;6724046;88;20205;-77
2020/12/02 06:05:44;;;;;;;13.15;6.65;;;4.20;99.90;;;;;;6722154;88;20859;-76
2020/12/02 06:15:45;;;;;;;10.57;6.03;;;4.00;99.90;;;;;;6731585;88;20672;-76
2020/12/02 06:25:46;;;;;;;11.05;6.45;;;3.80;99.90;;;;;;6729723;88;20328;-77
2020/12/02 06:35:59;;;;;;;11.68;6.37;;;3.80;99.90;;;;;;6744996;88;20265;-78
2020/12/02 06:46:04;;;;;;;16.87;8.30;;;3.70;99.90;;;;;;6741007;88;20223;-79
2020/12/02 06:56:05;;;;;;;15.48;8.52;;;3.50;99.90;;;;;;6743316;88;20218;-78
2020/12/02 07:06:17;;;;;;;15.48;8.18;;;3.60;99.90;;;;;;6744312;88;20193;-77
2020/12/02 07:16:25;;;;;;;15.80;8.18;;;3.50;99.90;;;;;;6735854;88;20324;-75
2020/12/02 07:26:26;;;;;;;16.67;8.43;;;3.50;99.90;;;;;;6740079;88;20170;-76
2020/12/02 07:36:33;;;;;;;14.90;8.43;;;3.40;99.90;;;;;;6751179;88;20222;-77
2020/12/02 07:46:34;;;;;;;15.05;8.70;;;3.50;99.90;;;;;;6741656;88;20232;-77
2020/12/02 07:56:38;;;;;;;16.70;8.70;;;3.60;99.90;;;;;;6740530;88;20677;-78
2020/12/02 08:06:47;;;;;;;14.48;8.95;;;3.60;99.90;;;;;;6748949;88;20242;-78
2020/12/02 08:16:52;;;;;;;14.73;8.63;;;3.70;99.90;;;;;;6751290;88;20277;-78
2020/12/02 08:26:53;;;;;;;15.13;8.98;;;3.90;99.90;;;;;;6751784;88;20241;-79
2020/12/02 08:37:35;;;;;;;15.57;8.60;;;3.90;99.90;;;;;;6748302;88;20202;-78
2020/12/02 08:47:35;;;;;;;16.75;8.27;;;4.10;99.90;;;;;;6690744;88;20210;-77
2020/12/02 08:57:36;;;;;;;15.45;8.75;;;4.20;99.90;;;;;;6743653;88;20260;-77
2020/12/02 09:07:37;;;;;;;15.02;8.68;;;4.30;99.90;;;;;;6745245;88;20201;-78
2020/12/02 09:17:37;;;;;;;14.93;8.25;;;4.40;99.90;;;;;;6739229;88;20196;-78
2020/12/02 09:27:38;;;;;;;15.67;8.50;;;4.60;99.90;;;;;;6742341;88;20249;-79
2020/12/02 09:37:38;;;;;;;14.25;7.90;;;4.70;99.90;;;;;;6744133;88;20557;-79
2020/12/02 09:47:40;;;;;;;14.65;7.80;;;4.60;99.90;;;;;;6740343;88;20187;-79
2020/12/02 09:57:41;;;;;;;10.75;6.65;;;4.50;99.90;;;;;;6743424;88;20212;-79
2020/12/02 10:08:10;;;;;;;12.20;7.12;;;4.50;99.90;;;;;;6745173;88;20589;-78
2020/12/02 10:18:34;;;;;;;10.85;6.22;;;4.70;99.90;;;;;;6722618;88;20609;-78
2020/12/02 10:28:50;;;;;;;9.77;5.53;;;4.90;99.90;;;;;;6717703;88;20193;-78
2020/12/02 10:38:56;;;;;;;12.80;6.73;;;4.80;99.90;;;;;;6722703;88;20217;-79
2020/12/02 10:49:09;;;;;;;11.20;6.40;;;5.00;99.90;;;;;;6722932;88;20206;-78
2020/12/02 10:59:13;;;;;;;7.95;4.37;;;5.20;99.90;;;;;;6721236;88;20269;-77
2020/12/02 11:09:21;;;;;;;9.32;5.60;;;5.10;99.90;;;;;;6722171;88;21039;-77
2020/12/02 11:19:42;;;;;;;8.70;5.47;;;5.00;99.90;;;;;;6721674;88;20186;-77
2020/12/02 11:29:42;;;;;;;10.00;5.53;;;5.40;99.90;;;;;;6721665;88;20644;-78
2020/12/02 11:40:05;;;;;;;8.57;5.13;;;5.10;99.90;;;;;;6723292;88;20302;-79
2020/12/02 11:50:25;;;;;;;9.75;5.37;;;5.10;99.90;;;;;;6731123;88;20503;-77
2020/12/02 12:00:26;;;;;;;7.80;4.72;;;5.10;99.90;;;;;;6734668;88;20211;-78
2020/12/02 12:10:32;;;;;;;9.02;5.60;;;5.00;99.90;;;;;;6731288;88;20201;-77
2020/12/02 12:20:37;;;;;;;9.95;5.28;;;5.00;99.90;;;;;;6722681;88;20209;-78
2020/12/02 12:30:37;;;;;;;10.63;5.80;;;5.30;99.90;;;;;;6721984;88;20283;-77
2020/12/02 12:40:47;;;;;;;11.43;6.00;;;5.10;99.90;;;;;;6722680;88;20228;-76
2020/12/02 12:50:50;;;;;;;8.80;5.37;;;5.00;99.90;;;;;;6718245;88;20185;-78
2020/12/02 13:00:51;;;;;;;11.30;6.25;;;4.90;99.90;;;;;;6720187;88;20265;-77
2020/12/02 13:11:06;;;;;;;13.40;7.00;;;4.90;99.90;;;;;;6742051;88;20218;-77
2020/12/02 13:21:15;;;;;;;12.37;7.25;;;5.10;99.90;;;;;;6745140;88;20215;-78
2020/12/02 13:31:29;;;;;;;15.77;8.55;;;5.00;99.90;;;;;;6743586;88;20193;-76
2020/12/02 13:41:33;;;;;;;13.07;7.45;;;4.80;99.90;;;;;;6742966;88;20218;-77
2020/12/02 13:51:49;;;;;;;14.02;7.47;;;4.80;99.90;;;;;;6737619;88;20197;-76
2020/12/02 14:02:11;;;;;;;15.23;8.33;;;4.80;99.90;;;;;;6743148;88;20290;-77
2020/12/02 14:12:15;;;;;;;16.30;8.95;;;4.90;99.90;;;;;;6742352;88;20761;-77
2020/12/02 14:22:19;;;;;;;17.02;9.00;;;4.80;99.90;;;;;;6742311;88;20204;-76
2020/12/02 14:32:21;;;;;;;17.00;8.20;;;4.60;99.90;;;;;;6740976;88;20204;-77
2020/12/02 14:42:21;;;;;;;13.95;6.82;;;4.60;99.90;;;;;;6738429;88;20185;-76
2020/12/02 14:52:22;;;;;;;15.60;7.95;;;4.50;99.90;;;;;;6745400;88;20267;-76
2020/12/02 15:02:22;;;;;;;15.35;7.95;;;4.40;99.90;;;;;;6743232;88;20285;-76
2020/12/02 15:12:23;;;;;;;15.32;7.37;;;4.40;99.90;;;;;;6744459;88;20691;-77
2020/12/02 15:22:24;;;;;;;13.50;7.12;;;4.30;99.90;;;;;;6741790;88;20182;-78
2020/12/02 15:32:31;;;;;;;16.73;7.80;;;4.40;99.90;;;;;;6738362;88;20205;-76
2020/12/02 15:42:31;;;;;;;;;;;4.30;99.90;;;;;;6738916;88;20207;-76
2020/12/02 15:52:48;;;;;;;11.93;6.50;;;4.30;99.90;;;;;;6741493;88;20511;-77
2020/12/02 16:02:49;;;;;;;16.27;7.10;;;4.20;99.90;;;;;;6738465;88;20211;-77
2020/12/02 16:12:55;;;;;;;15.90;7.55;;;4.10;99.90;;;;;;6738768;88;20209;-77
2020/12/02 16:23:01;;;;;;;15.20;7.27;;;4.10;99.90;;;;;;6744134;88;20347;-76
2020/12/02 16:33:11;;;;;;;14.02;6.93;;;4.20;99.90;;;;;;6739952;88;20222;-76
2020/12/02 16:43:47;;;;;;;15.18;7.20;;;4.10;99.90;;;;;;6741386;88;20199;-77
2020/12/02 16:54:12;;;;;;;17.35;8.02;;;3.90;99.90;;;;;;6742682;88;20219;-76
2020/12/02 17:04:14;;;;;;;16.00;7.53;;;4.00;99.90;;;;;;6740943;88;20194;-77
2020/12/02 17:14:27;;;;;;;14.87;7.35;;;3.90;99.90;;;;;;6749251;88;20248;-75
2020/12/02 17:24:41;;;;;;;13.32;7.07;;;3.80;99.90;;;;;;6740493;88;20184;-75
2020/12/02 17:35:25;;;;;;;15.00;7.45;;;3.80;99.90;;;;;;6757118;88;20204;-76
2020/12/02 17:45:41;;;;;;;17.25;7.32;;;3.80;99.90;;;;;;6738668;88;20319;-76
2020/12/02 17:56:10;;;;;;;13.33;6.60;;;3.70;99.90;;;;;;6740671;88;20185;-77
2020/12/02 18:06:30;;;;;;;12.80;6.35;;;3.60;99.90;;;;;;6738947;88;20307;-77
2020/12/02 18:16:45;;;;;;;15.93;7.07;;;3.60;99.90;;;;;;6740161;88;20215;-79
2020/12/02 18:26:54;;;;;;;14.20;6.37;;;3.60;99.90;;;;;;6740745;88;20704;-77
2020/12/02 18:37:42;;;;;;;13.95;6.43;;;3.50;99.90;;;;;;6758196;76;20153;-79
2020/12/02 18:47:47;;;;;;;16.85;7.47;;;3.40;99.90;;;;;;6739743;88;20227;-79
2020/12/02 18:57:57;;;;;;;17.52;8.38;;;3.30;99.90;;;;;;6751602;88;20190;-78
2020/12/02 19:08:13;;;;;;;19.73;8.75;;;3.30;99.90;;;;;;6749621;88;20349;-76
2020/12/02 19:18:34;;;;;;;19.05;8.45;;;3.20;99.90;;;;;;6745300;88;20215;-77
2020/12/02 19:29:12;;;;;;;20.90;8.82;;;3.10;99.90;;;;;;6738908;88;20177;-75
2020/12/02 19:39:47;;;;;;;21.15;8.98;;;3.10;99.90;;;;;;6749642;88;20310;-76
2020/12/02 19:49:48;;;;;;;17.05;8.20;;;3.00;99.90;;;;;;6749664;88;20235;-74
2020/12/02 20:00:13;;;;;;;14.87;7.62;;;3.00;99.90;;;;;;6753521;88;20207;-75
2020/12/02 20:10:36;;;;;;;14.30;6.18;;;3.00;99.90;;;;;;6746071;88;20201;-76
2020/12/02 20:20:55;;;;;;;16.17;6.90;;;3.00;99.90;;;;;;6758918;88;20680;-74
2020/12/02 20:31:06;;;;;;;14.95;6.55;;;3.00;99.90;;;;;;6755259;88;20180;-77
2020/12/02 20:41:08;;;;;;;16.92;7.68;;;3.00;99.90;;;;;;6750273;88;20197;-75
2020/12/02 20:51:28;;;;;;;16.40;7.95;;;3.00;99.90;;;;;;6749338;88;20178;-75
2020/12/02 21:01:29;;;;;;;16.92;6.90;;;3.00;99.90;;;;;;6744582;88;20775;-77
2020/12/02 21:11:31;;;;;;;16.37;7.80;;;3.00;99.90;;;;;;6744117;88;20388;-74
2020/12/02 21:21:54;;;;;;;13.55;6.50;;;3.00;99.90;;;;;;6755265;88;20737;-75
2020/12/02 21:32:48;;;;;;;14.02;6.53;;;3.00;99.90;;;;;;6754106;88;20274;-75
2020/12/02 21:43:07;;;;;;;13.90;6.65;;;3.00;99.90;;;;;;6681903;89;20192;-75
2020/12/02 21:53:13;;;;;;;14.43;6.50;;;3.00;99.90;;;;;;6682894;89;20251;-77
2020/12/02 22:03:39;;;;;;;15.47;8.00;;;3.00;99.90;;;;;;6738782;88;20218;-76
2020/12/02 22:13:44;;;;;;;16.50;6.80;;;3.10;99.90;;;;;;6665584;89;20615;-75
2020/12/02 22:24:11;;;;;;;17.12;7.10;;;3.10;99.90;;;;;;6670553;88;20220;-76
2020/12/02 22:34:26;;;;;;;15.10;6.93;;;3.00;99.90;;;;;;6714039;88;20205;-75
2020/12/02 22:44:54;;;;;;;18.98;8.63;;;3.00;99.90;;;;;;6755603;88;20228;-75
2020/12/02 22:54:57;;;;;;;16.60;8.07;;;3.10;99.90;;;;;;6754312;88;20173;-76
2020/12/02 23:04:58;;;;;;;17.20;8.10;;;3.10;99.90;;;;;;6754773;88;20178;-76
2020/12/02 23:15:03;;;;;;;18.42;8.27;;;3.10;99.90;;;;;;6748821;88;20353;-76
2020/12/02 23:25:04;;;;;;;16.40;7.80;;;3.00;99.90;;;;;;6753802;88;20734;-76
2020/12/02 23:35:10;;;;;;;20.33;8.52;;;3.00;99.90;;;;;;6750350;88;20234;-77
2020/12/02 23:45:33;;;;;;;15.20;7.37;;;2.90;99.90;;;;;;6753962;88;20189;-76
2020/12/02 23:55:40;;;;;;;19.23;8.60;;;2.80;99.90;;;;;;6751418;88;20262;-76
